Time;durP1;ratioP1;P1;durP2;ratioP2;P2;SDS_P1;SDS_P2;PMS_P1;PMS_P2;Temp;Humidity;BMP_temperature;BMP_pressure;BME280_temperature;BME280_humidity;BME280_pressure;Samples;Min_cycle;Max_cycle;Signal;HPM_P1;HPM_P2
2022/12/23 00:01:15;;;;;;;45.40;28.50;;;7.60;99.90;;;;;;4964012;28;20034;-75
2022/12/23 00:03:41;;;;;;;46.28;27.63;;;7.60;99.90;;;;;;4968240;28;20044;-75
2022/12/23 00:06:09;;;;;;;39.83;26.60;;;7.60;99.90;;;;;;4961117;28;20050;-75
2022/12/23 00:08:36;;;;;;;41.42;26.42;;;7.70;99.90;;;;;;4964666;28;20016;-75
2022/12/23 00:11:04;;;;;;;37.95;24.67;;;7.70;99.90;;;;;;4964535;28;20032;-75
2022/12/23 00:16:14;;;;;;;45.95;28.25;;;7.70;99.90;;;;;;4961565;28;20094;-75
2022/12/23 00:18:41;;;;;;;42.22;27.75;;;7.70;99.90;;;;;;4968176;28;20030;-75
2022/12/23 00:21:10;;;;;;;40.20;26.48;;;7.70;99.90;;;;;;4967681;28;20027;-75
2022/12/23 00:23:38;;;;;;;46.08;27.13;;;7.70;99.90;;;;;;4965692;28;20031;-75
2022/12/23 00:26:04;;;;;;;42.65;27.35;;;7.70;99.90;;;;;;4964343;28;20046;-75
2022/12/23 00:28:31;;;;;;;45.35;28.55;;;7.70;99.90;;;;;;4961376;28;20018;-75
2022/12/23 00:31:06;;;;;;;43.08;27.40;;;7.70;99.90;;;;;;4968315;28;20148;-75
2022/12/23 00:33:37;;;;;;;44.13;28.25;;;7.70;99.90;;;;;;4967389;28;20082;-75
2022/12/23 00:36:30;;;;;;;41.88;28.00;;;7.70;99.90;;;;;;4968399;28;20034;-75
2022/12/23 00:44:26;;;;;;;43.63;27.52;;;7.70;99.90;;;;;;4971252;28;20038;-75
2022/12/23 00:46:51;;;;;;;43.83;28.67;;;7.70;99.90;;;;;;4958348;28;20019;-75
2022/12/23 00:52:04;;;;;;;47.58;28.45;;;7.80;99.90;;;;;;4963381;28;20042;-75
2022/12/23 00:54:30;;;;;;;49.90;29.70;;;7.70;99.90;;;;;;4967813;28;20499;-75
2022/12/23 00:56:56;;;;;;;50.83;31.88;;;7.70;99.90;;;;;;4966984;28;20023;-75
2022/12/23 00:59:22;;;;;;;58.60;32.38;;;7.70;99.90;;;;;;4966474;28;20026;-75
2022/12/23 01:07:17;;;;;;;62.25;35.00;;;7.70;99.90;;;;;;4963833;28;20402;-75
2022/12/23 01:09:43;;;;;;;67.13;37.60;;;7.70;99.90;;;;;;4966733;28;20023;-75
2022/12/23 01:12:08;;;;;;;64.70;36.97;;;7.70;99.90;;;;;;4969424;28;20046;-75
2022/12/23 01:14:34;;;;;;;62.78;35.47;;;7.70;99.90;;;;;;4967033;28;20034;-75
2022/12/23 01:17:00;;;;;;;67.35;38.42;;;7.70;99.90;;;;;;4965236;28;20038;-75
2022/12/23 01:19:27;;;;;;;65.43;38.40;;;7.70;99.90;;;;;;4962927;28;20117;-75
2022/12/23 01:21:52;;;;;;;67.10;38.13;;;7.70;99.90;;;;;;4965877;28;20030;-75
2022/12/23 01:24:18;;;;;;;64.40;38.42;;;7.70;99.90;;;;;;4963050;28;20035;-75
2022/12/23 01:26:44;;;;;;;62.47;37.72;;;7.70;99.90;;;;;;4965801;28;20027;-75
2022/12/23 01:29:09;;;;;;;60.38;37.45;;;7.70;99.90;;;;;;4962404;28;20046;-75
2022/12/23 01:31:35;;;;;;;68.30;38.63;;;7.70;99.90;;;;;;4962532;28;20034;-75
2022/12/23 01:34:01;;;;;;;62.35;35.50;;;7.60;99.90;;;;;;4964573;28;20501;-75
2022/12/23 01:36:27;;;;;;;66.18;39.40;;;7.70;99.90;;;;;;4963071;28;20263;-75
2022/12/23 01:38:54;;;;;;;65.93;38.00;;;7.60;99.90;;;;;;4964222;28;20454;-75
2022/12/23 01:44:47;;;;;;;65.93;36.80;;;7.60;99.90;;;;;;4963220;28;20038;-75
2022/12/23 01:47:27;;;;;;;62.83;38.65;;;7.70;99.90;;;;;;4963760;28;20031;-75
2022/12/23 01:50:18;;;;;;;70.47;39.22;;;7.70;99.90;;;;;;4962672;28;20027;-75
2022/12/23 01:52:53;;;;;;;69.97;39.72;;;7.60;99.90;;;;;;4951647;28;20489;-75
2022/12/23 01:55:22;;;;;;;66.45;39.35;;;7.70;99.90;;;;;;4965496;28;20029;-75
2022/12/23 01:57:50;;;;;;;70.78;39.50;;;7.70;99.90;;;;;;4961984;28;20470;-75
2022/12/23 02:05:45;;;;;;;65.70;38.83;;;7.60;99.90;;;;;;4961928;28;20034;-75
2022/12/23 02:11:33;;;;;;;69.15;39.10;;;7.60;99.90;;;;;;4964652;28;20118;-75
2022/12/23 02:17:35;;;;;;;59.70;36.03;;;7.70;99.90;;;;;;4961809;28;20128;-75
2022/12/23 02:20:06;;;;;;;59.53;36.33;;;7.70;99.90;;;;;;4962043;28;20398;-75
2022/12/23 02:22:41;;;;;;;57.93;35.37;;;7.70;99.90;;;;;;4962820;28;20051;-75
2022/12/23 02:25:25;;;;;;;54.03;32.78;;;7.70;99.90;;;;;;4962297;28;20053;-75
2022/12/23 02:28:16;;;;;;;50.47;30.90;;;7.70;99.90;;;;;;4961674;28;20023;-75
2022/12/23 02:30:47;;;;;;;64.97;36.35;;;7.70;99.90;;;;;;4960446;28;20024;-75
2022/12/23 02:33:29;;;;;;;63.83;36.58;;;7.60;99.90;;;;;;4961500;28;20188;-75
2022/12/23 02:35:58;;;;;;;;;;;7.60;99.90;;;;;;4963453;28;20054;-75
2022/12/23 02:38:53;;;;;;;72.90;40.65;;;7.60;99.90;;;;;;4963119;28;19918;-75
2022/12/23 02:41:27;;;;;;;70.72;41.35;;;7.60;99.90;;;;;;4944863;28;20039;-75
2022/12/23 02:44:06;;;;;;;78.13;42.90;;;7.60;99.90;;;;;;4963766;28;20042;-75
2022/12/23 02:46:37;;;;;;;76.63;44.75;;;7.60;99.90;;;;;;4961352;28;20045;-75
2022/12/23 02:49:10;;;;;;;76.80;42.63;;;7.60;99.90;;;;;;4964397;28;20300;-75
2022/12/23 02:51:42;;;;;;;74.30;42.17;;;7.60;99.90;;;;;;4962327;28;20027;-75
2022/12/23 02:54:13;;;;;;;73.43;41.83;;;7.60;99.90;;;;;;4962891;28;20137;-75
2022/12/23 02:56:44;;;;;;;71.38;40.45;;;7.60;99.90;;;;;;4963631;28;20054;-75
2022/12/23 02:59:18;;;;;;;71.22;41.92;;;7.70;99.90;;;;;;4961961;28;20043;-75
2022/12/23 03:01:45;;;;;;;69.30;40.90;;;7.60;99.90;;;;;;4957668;28;20035;-75
2022/12/23 03:04:11;;;;;;;75.65;43.33;;;7.60;99.90;;;;;;4960949;28;20031;-75
2022/12/23 03:06:47;;;;;;;80.32;43.22;;;7.60;99.90;;;;;;4963055;28;20101;-75
2022/12/23 03:09:44;;;;;;;70.72;40.97;;;7.60;99.90;;;;;;4961755;28;20027;-75
2022/12/23 03:12:31;;;;;;;66.32;38.88;;;7.60;99.90;;;;;;4960778;28;20037;-75
2022/12/23 03:15:32;;;;;;;66.15;40.03;;;7.60;99.90;;;;;;4964333;28;20118;-75
2022/12/23 03:18:22;;;;;;;71.25;40.85;;;7.60;99.90;;;;;;4962460;28;20054;-75
2022/12/23 03:20:55;;;;;;;72.95;42.53;;;7.60;99.90;;;;;;4963616;28;20022;-75
2022/12/23 03:23:50;;;;;;;72.65;43.00;;;7.60;99.90;;;;;;4959509;28;20028;-75
2022/12/23 03:26:21;;;;;;;70.25;42.53;;;7.60;99.90;;;;;;4964206;28;20035;-75
2022/12/23 03:29:04;;;;;;;72.80;42.10;;;7.60;99.90;;;;;;4960913;28;20030;-75
2022/12/23 03:31:33;;;;;;;73.05;43.80;;;7.60;99.90;;;;;;4960946;28;20126;-75
2022/12/23 03:34:07;;;;;;;70.80;42.40;;;7.60;99.90;;;;;;4962837;28;20041;-75
2022/12/23 03:36:41;;;;;;;71.22;41.85;;;7.60;99.90;;;;;;4961286;28;20038;-75
2022/12/23 03:39:12;;;;;;;72.95;43.05;;;7.60;99.90;;;;;;4960846;28;20299;-75
2022/12/23 03:41:43;;;;;;;76.55;42.72;;;7.60;99.90;;;;;;4961324;28;20543;-75
2022/12/23 03:44:17;;;;;;;73.68;42.17;;;7.70;99.90;;;;;;4963339;28;20038;-75
2022/12/23 03:46:50;;;;;;;70.88;42.38;;;7.70;99.90;;;;;;4962342;28;20031;-75
2022/12/23 03:49:25;;;;;;;69.00;42.13;;;7.60;99.90;;;;;;4961952;28;20038;-75
2022/12/23 03:52:06;;;;;;;70.80;42.47;;;7.60;99.90;;;;;;4964298;28;20020;-75
2022/12/23 03:54:44;;;;;;;76.65;45.08;;;7.60;99.90;;;;;;4962082;28;20045;-75
2022/12/23 03:57:12;;;;;;;75.35;42.95;;;7.60;99.90;;;;;;4964082;28;20133;-75
2022/12/23 03:59:45;;;;;;;75.93;43.05;;;7.60;99.90;;;;;;4963141;28;20031;-75
2022/12/23 04:02:30;;;;;;;77.43;45.90;;;7.60;99.90;;;;;;4963970;28;20370;-75
2022/12/23 04:05:25;;;;;;;72.35;43.70;;;7.70;99.90;;;;;;4962750;28;20031;-75
2022/12/23 04:08:00;;;;;;;75.10;43.67;;;7.70;99.90;;;;;;4965640;28;20032;-75
2022/12/23 04:10:27;;;;;;;74.55;45.92;;;7.60;99.90;;;;;;4964911;28;20027;-75
2022/12/23 04:12:53;;;;;;;79.38;46.55;;;7.60;99.90;;;;;;4966385;28;20027;-75
2022/12/23 04:15:23;;;;;;;73.78;43.92;;;7.60;99.90;;;;;;4965128;28;20027;-75
2022/12/23 04:17:50;;;;;;;77.40;46.92;;;7.60;99.90;;;;;;4966629;28;20497;-75
2022/12/23 04:20:16;;;;;;;77.25;45.17;;;7.70;99.90;;;;;;4964801;28;20139;-75
2022/12/23 04:22:42;;;;;;;77.88;45.58;;;7.70;99.90;;;;;;4964630;28;20073;-75
2022/12/23 04:25:10;;;;;;;75.00;44.95;;;7.70;99.90;;;;;;4965015;28;20070;-75
2022/12/23 04:27:36;;;;;;;75.50;44.78;;;7.70;99.90;;;;;;4967582;28;20504;-75
2022/12/23 04:30:02;;;;;;;86.43;47.47;;;7.60;99.90;;;;;;4965701;28;20470;-75
2022/12/23 04:32:28;;;;;;;79.38;46.83;;;7.60;99.90;;;;;;4964103;28;20034;-75
2022/12/23 04:34:53;;;;;;;84.30;48.25;;;7.60;99.90;;;;;;4965252;28;20019;-75
2022/12/23 04:37:19;;;;;;;75.43;45.03;;;7.60;99.90;;;;;;4963106;28;20042;-75
2022/12/23 04:39:45;;;;;;;75.70;44.83;;;7.60;99.90;;;;;;4964368;28;20176;-75
2022/12/23 04:42:10;;;;;;;75.30;45.35;;;7.60;99.90;;;;;;4964226;28;20035;-75
2022/12/23 04:44:36;;;;;;;80.97;46.35;;;7.60;99.90;;;;;;4966211;28;20034;-75
2022/12/23 04:47:02;;;;;;;82.50;46.80;;;7.60;99.90;;;;;;4963875;28;20024;-75
2022/12/23 04:49:29;;;;;;;78.70;47.97;;;7.60;99.90;;;;;;4966639;28;20485;-75
2022/12/23 04:51:54;;;;;;;76.68;47.08;;;7.60;99.90;;;;;;4963090;28;20028;-75
2022/12/23 04:54:20;;;;;;;79.18;47.70;;;7.70;99.90;;;;;;4966444;28;20046;-75
2022/12/23 04:56:46;;;;;;;83.43;47.90;;;7.60;99.90;;;;;;4966726;28;20039;-75
2022/12/23 04:59:12;;;;;;;82.90;48.05;;;7.60;99.90;;;;;;4966414;28;20114;-75
2022/12/23 05:01:37;;;;;;;74.68;46.47;;;7.70;99.90;;;;;;4963568;28;20390;-75
2022/12/23 05:04:03;;;;;;;85.60;48.72;;;7.70;99.90;;;;;;4965327;28;20058;-75
2022/12/23 05:06:29;;;;;;;81.25;46.88;;;7.70;99.90;;;;;;4967628;28;20439;-75
2022/12/23 05:08:55;;;;;;;81.50;47.15;;;7.70;99.90;;;;;;4966834;28;20476;-75
2022/12/23 05:11:20;;;;;;;81.82;48.53;;;7.70;99.90;;;;;;4965533;28;20026;-75
2022/12/23 05:13:46;;;;;;;74.55;45.60;;;7.70;99.90;;;;;;4966268;28;20082;-75
2022/12/23 05:16:12;;;;;;;83.88;47.17;;;7.60;99.90;;;;;;4964629;28;20026;-75
2022/12/23 05:18:37;;;;;;;83.65;49.70;;;7.60;99.90;;;;;;4964192;28;20027;-75
2022/12/23 05:21:03;;;;;;;85.90;49.92;;;7.60;99.90;;;;;;4964908;28;20398;-75
2022/12/23 05:23:29;;;;;;;81.97;49.08;;;7.60;99.90;;;;;;4963470;28;20498;-75
2022/12/23 05:25:55;;;;;;;82.43;49.28;;;7.60;99.90;;;;;;4966110;28;20025;-75
2022/12/23 05:28:21;;;;;;;73.80;44.55;;;7.60;99.90;;;;;;4964291;28;20063;-75
2022/12/23 05:30:47;;;;;;;72.93;44.95;;;7.60;99.90;;;;;;4963073;28;20074;-75
2022/12/23 05:33:13;;;;;;;80.75;43.47;;;7.60;99.90;;;;;;4965794;28;20111;-75
2022/12/23 05:35:39;;;;;;;73.97;43.83;;;7.70;99.90;;;;;;4962786;28;20023;-75
2022/12/23 05:38:05;;;;;;;71.53;42.00;;;7.60;99.90;;;;;;4962265;28;20529;-75
2022/12/23 05:40:31;;;;;;;71.50;42.35;;;7.70;99.90;;;;;;4969619;28;20153;-75
2022/12/23 05:42:57;;;;;;;69.22;40.72;;;7.70;99.90;;;;;;4973100;28;20101;-75
2022/12/23 05:45:22;;;;;;;76.45;41.83;;;7.70;99.90;;;;;;4973242;28;20026;-75
2022/12/23 05:47:48;;;;;;;77.35;42.95;;;7.70;99.90;;;;;;4973179;28;20050;-75
2022/12/23 05:50:14;;;;;;;72.85;43.60;;;7.70;99.90;;;;;;4971961;28;20018;-75
2022/12/23 05:52:39;;;;;;;75.18;41.00;;;7.70;99.90;;;;;;4972872;28;20052;-75
2022/12/23 05:55:06;;;;;;;71.13;41.78;;;7.70;99.90;;;;;;4972858;28;20050;-75
2022/12/23 05:57:31;;;;;;;75.85;42.35;;;7.70;99.90;;;;;;4970975;28;20043;-75
2022/12/23 05:59:57;;;;;;;70.20;41.00;;;7.70;99.90;;;;;;4967271;28;20102;-75
2022/12/23 06:02:24;;;;;;;70.18;41.78;;;7.60;99.90;;;;;;4973089;28;20069;-75
2022/12/23 06:04:49;;;;;;;72.80;42.08;;;7.60;99.90;;;;;;4972896;28;20022;-75
2022/12/23 06:07:15;;;;;;;66.43;40.17;;;7.60;99.90;;;;;;4970980;28;20393;-75
2022/12/23 06:09:41;;;;;;;69.47;41.35;;;7.60;99.90;;;;;;4967212;28;20023;-75
2022/12/23 06:12:07;;;;;;;74.40;42.92;;;7.60;99.90;;;;;;4964668;28;20019;-75
2022/12/23 06:14:32;;;;;;;69.57;42.20;;;7.70;99.90;;;;;;4962079;28;20023;-75
2022/12/23 06:16:58;;;;;;;73.43;43.28;;;7.60;99.90;;;;;;4965105;28;20050;-75
2022/12/23 06:19:25;;;;;;;77.22;42.78;;;7.60;99.90;;;;;;4969265;28;20031;-75
2022/12/23 06:21:51;;;;;;;73.10;42.30;;;7.60;99.90;;;;;;4960941;28;20030;-75
2022/12/23 06:24:17;;;;;;;71.18;42.05;;;7.60;99.90;;;;;;4964961;28;20105;-75
2022/12/23 06:26:42;;;;;;;76.95;42.92;;;7.60;99.90;;;;;;4965402;28;20545;-75
2022/12/23 06:29:09;;;;;;;77.65;44.03;;;7.60;99.90;;;;;;4963282;28;20030;-75
2022/12/23 06:31:36;;;;;;;77.45;43.85;;;7.60;99.90;;;;;;4964980;28;20022;-75
2022/12/23 06:34:02;;;;;;;79.43;44.30;;;7.60;99.90;;;;;;4961758;28;20437;-75
2022/12/23 06:36:27;;;;;;;71.05;43.30;;;7.60;99.90;;;;;;4966337;28;20050;-75
2022/12/23 06:38:53;;;;;;;75.30;43.17;;;7.60;99.90;;;;;;4962124;28;20525;-75
2022/12/23 06:41:18;;;;;;;79.95;43.65;;;7.60;99.90;;;;;;4960790;28;20117;-75
2022/12/23 06:43:44;;;;;;;74.38;42.95;;;7.60;99.90;;;;;;4959828;28;20516;-75
2022/12/23 06:46:11;;;;;;;73.30;42.33;;;7.60;99.90;;;;;;4961273;28;20072;-75
2022/12/23 06:48:36;;;;;;;78.22;43.08;;;7.60;99.90;;;;;;4959823;28;20042;-75
2022/12/23 06:51:02;;;;;;;74.40;41.17;;;7.60;99.90;;;;;;4962942;28;20019;-75
2022/12/23 06:53:28;;;;;;;79.22;42.25;;;7.60;99.90;;;;;;4962011;28;20035;-75
2022/12/23 06:56:01;;;;;;;78.43;42.80;;;7.60;99.90;;;;;;4959955;28;20038;-75
2022/12/23 06:58:26;;;;;;;71.55;39.63;;;7.60;99.90;;;;;;4962676;28;20129;-75
2022/12/23 07:00:52;;;;;;;58.75;37.13;;;7.60;99.90;;;;;;4970688;28;20157;-75
2022/12/23 07:03:18;;;;;;;57.83;32.63;;;7.60;99.90;;;;;;4965930;28;20073;-75
2022/12/23 07:05:50;;;;;;;48.03;28.05;;;7.50;99.90;;;;;;4966554;28;20042;-75
2022/12/23 07:08:17;;;;;;;40.72;25.38;;;7.40;99.90;;;;;;4964266;28;20034;-75
2022/12/23 07:10:43;;;;;;;42.53;25.60;;;7.40;99.90;;;;;;4964940;28;20489;-75
2022/12/23 07:13:09;;;;;;;41.42;25.52;;;7.40;99.90;;;;;;4966666;28;20050;-75
2022/12/23 07:15:36;;;;;;;35.85;23.67;;;7.40;99.90;;;;;;4960292;28;20544;-75
2022/12/23 07:18:01;;;;;;;38.10;23.92;;;7.40;99.90;;;;;;4964959;28;20035;-75
2022/12/23 07:20:27;;;;;;;42.15;25.33;;;7.40;99.90;;;;;;4965301;28;20039;-75
2022/12/23 07:22:54;;;;;;;37.38;24.27;;;7.40;99.90;;;;;;4961877;28;20027;-75
2022/12/23 07:25:20;;;;;;;47.20;24.58;;;7.40;99.90;;;;;;4963314;28;20018;-75
2022/12/23 07:27:45;;;;;;;37.33;23.08;;;7.30;99.90;;;;;;4962794;28;20034;-75
2022/12/23 07:30:11;;;;;;;34.50;23.10;;;7.30;99.90;;;;;;4967014;28;20027;-75
2022/12/23 07:32:37;;;;;;;37.50;22.70;;;7.30;99.90;;;;;;4971210;28;20494;-75
2022/12/23 07:35:03;;;;;;;34.75;22.75;;;7.30;99.90;;;;;;4976073;28;20117;-75
2022/12/23 07:37:30;;;;;;;45.63;26.67;;;7.30;99.90;;;;;;4961782;28;20038;-75
2022/12/23 07:39:56;;;;;;;42.00;27.08;;;7.30;99.90;;;;;;4961937;28;20031;-75
2022/12/23 07:42:21;;;;;;;45.13;26.90;;;7.30;99.90;;;;;;4972958;28;20034;-75
2022/12/23 07:44:47;;;;;;;47.15;28.92;;;7.30;99.90;;;;;;4960375;28;20038;-75
2022/12/23 07:47:14;;;;;;;46.33;28.50;;;7.40;99.90;;;;;;4977233;28;20023;-75
2022/12/23 07:49:40;;;;;;;53.15;31.83;;;7.30;99.90;;;;;;4960152;28;20038;-75
2022/12/23 07:52:06;;;;;;;53.50;31.40;;;7.40;99.90;;;;;;4974194;28;20113;-75
2022/12/23 07:54:31;;;;;;;59.17;34.50;;;7.40;99.90;;;;;;4974584;28;20126;-75
2022/12/23 07:56:57;;;;;;;60.25;36.60;;;7.50;99.90;;;;;;4974687;28;20031;-75
2022/12/23 07:59:26;;;;;;;55.97;31.50;;;7.50;99.90;;;;;;4975322;28;20026;-75
2022/12/23 08:01:51;;;;;;;48.40;29.10;;;7.50;99.90;;;;;;4974010;28;20290;-75
2022/12/23 08:04:17;;;;;;;47.85;27.42;;;7.50;99.90;;;;;;4974697;28;20079;-75
2022/12/23 08:06:43;;;;;;;43.20;26.77;;;7.50;99.90;;;;;;4974033;28;20074;-75
2022/12/23 08:09:09;;;;;;;42.20;27.10;;;7.50;99.90;;;;;;4974992;28;20101;-75
2022/12/23 08:11:35;;;;;;;45.38;25.58;;;7.50;99.90;;;;;;4975443;28;20019;-75
2022/12/23 08:14:00;;;;;;;40.70;25.00;;;7.40;99.90;;;;;;4975071;28;20113;-75
2022/12/23 08:16:26;;;;;;;41.88;25.60;;;7.40;99.90;;;;;;4972547;28;20517;-75
2022/12/23 08:18:52;;;;;;;40.78;25.73;;;7.40;99.90;;;;;;4971957;28;20022;-75
2022/12/23 08:21:19;;;;;;;41.25;25.88;;;7.40;99.90;;;;;;4972928;28;20319;-75
2022/12/23 08:23:46;;;;;;;55.05;31.80;;;7.40;99.90;;;;;;4971364;28;20045;-75
2022/12/23 08:26:15;;;;;;;45.35;29.42;;;7.50;99.90;;;;;;4971046;28;20097;-75
2022/12/23 08:28:41;;;;;;;50.55;28.67;;;7.50;99.90;;;;;;4972769;28;20230;-75
2022/12/23 08:31:13;;;;;;;47.47;28.60;;;7.50;99.90;;;;;;4972851;28;20023;-75
2022/12/23 08:33:41;;;;;;;47.05;28.88;;;7.50;99.90;;;;;;4972538;28;20021;-75
2022/12/23 08:36:13;;;;;;;48.42;29.90;;;7.50;99.90;;;;;;4973038;28;20041;-75
2022/12/23 08:38:39;;;;;;;51.35;30.55;;;7.60;99.90;;;;;;4972577;28;20481;-75
2022/12/23 08:41:16;;;;;;;52.53;32.88;;;7.60;99.90;;;;;;4974347;28;20026;-75
2022/12/23 08:43:42;;;;;;;58.47;32.35;;;7.60;99.90;;;;;;4972445;28;20114;-75
2022/12/23 08:46:09;;;;;;;58.72;36.08;;;7.60;99.90;;;;;;4973402;28;20113;-75
2022/12/23 08:48:35;;;;;;;68.78;37.65;;;7.70;99.90;;;;;;4969012;28;20031;-74
2022/12/23 08:51:15;;;;;;;66.68;38.33;;;7.70;99.90;;;;;;4973791;28;20031;-75
2022/12/23 08:53:42;;;;;;;65.20;39.90;;;7.70;99.90;;;;;;4974273;28;20030;-75
2022/12/23 08:56:14;;;;;;;67.22;38.58;;;7.80;99.90;;;;;;4974873;28;20031;-75
2022/12/23 08:58:42;;;;;;;58.40;35.15;;;7.80;99.90;;;;;;4971905;28;20101;-75
2022/12/23 09:01:10;;;;;;;53.33;32.25;;;7.80;99.90;;;;;;4974487;28;20069;-75
2022/12/23 09:03:37;;;;;;;45.53;29.58;;;7.80;99.90;;;;;;4973545;28;20393;-76
2022/12/23 09:06:04;;;;;;;44.67;28.42;;;7.80;99.90;;;;;;4975057;28;20026;-76
2022/12/23 09:08:30;;;;;;;41.60;26.35;;;7.90;99.90;;;;;;4973838;28;20027;-76
2022/12/23 09:10:56;;;;;;;40.03;26.13;;;7.80;99.90;;;;;;4974086;28;20366;-76
2022/12/23 09:13:21;;;;;;;44.50;27.83;;;7.80;99.90;;;;;;4974669;28;20030;-76
2022/12/23 09:15:47;;;;;;;44.10;27.60;;;7.90;99.90;;;;;;4973835;28;20035;-75
2022/12/23 09:18:13;;;;;;;41.90;26.75;;;7.90;99.90;;;;;;4973887;28;20035;-76
2022/12/23 09:20:39;;;;;;;40.08;24.83;;;7.90;99.90;;;;;;4974869;28;20433;-76
2022/12/23 09:23:05;;;;;;;35.80;24.33;;;7.90;99.90;;;;;;4974675;28;20466;-76
2022/12/23 09:25:32;;;;;;;42.63;25.15;;;7.90;99.90;;;;;;4958408;28;20050;-75
2022/12/23 09:27:57;;;;;;;36.58;23.42;;;8.00;99.90;;;;;;4973188;28;20031;-76
2022/12/23 09:30:23;;;;;;;36.90;24.65;;;8.00;99.90;;;;;;4973246;28;20041;-76
2022/12/23 09:32:50;;;;;;;37.03;23.38;;;8.00;99.90;;;;;;4971664;28;20133;-76
2022/12/23 09:35:16;;;;;;;36.15;24.23;;;8.00;99.90;;;;;;4973583;28;20038;-76
2022/12/23 09:37:41;;;;;;;38.90;26.67;;;8.10;99.90;;;;;;4974836;28;20026;-75
2022/12/23 09:40:11;;;;;;;44.60;25.92;;;8.20;99.90;;;;;;4973518;28;20084;-75
2022/12/23 09:42:42;;;;;;;37.85;25.00;;;8.30;99.90;;;;;;4974803;28;20030;-75
2022/12/23 09:45:18;;;;;;;39.03;25.30;;;8.30;99.90;;;;;;4974562;28;20030;-75
2022/12/23 09:47:44;;;;;;;45.22;26.98;;;8.40;99.90;;;;;;4972365;28;20055;-76
2022/12/23 09:50:25;;;;;;;45.97;28.23;;;8.50;99.90;;;;;;4974445;28;20457;-75
2022/12/23 09:52:58;;;;;;;43.80;27.90;;;8.50;99.90;;;;;;4974207;28;20090;-76
2022/12/23 09:55:37;;;;;;;46.50;28.35;;;8.60;99.90;;;;;;4974564;28;20027;-76
2022/12/23 09:58:13;;;;;;;44.50;28.05;;;8.70;99.90;;;;;;4973589;28;20444;-76
2022/12/23 10:00:42;;;;;;;47.70;30.38;;;8.70;99.90;;;;;;4963159;28;20473;-75
2022/12/23 10:03:57;;;;;;;46.08;30.13;;;8.80;99.90;;;;;;4965799;28;20030;-76
2022/12/23 10:06:26;;;;;;;49.30;29.63;;;8.80;99.90;;;;;;4926242;28;20047;-75
2022/12/23 10:08:57;;;;;;;41.60;27.52;;;8.80;99.90;;;;;;4957599;28;20464;-76
2022/12/23 10:11:28;;;;;;;45.47;26.60;;;8.90;99.90;;;;;;4957643;28;20043;-75
2022/12/23 10:14:17;;;;;;;51.90;30.85;;;9.00;99.90;;;;;;4964848;28;20481;-75
2022/12/23 10:16:48;;;;;;;48.38;29.75;;;9.00;99.90;;;;;;4961441;28;20022;-75
2022/12/23 10:19:25;;;;;;;52.07;32.00;;;9.00;99.90;;;;;;4956289;28;20034;-75
2022/12/23 10:22:05;;;;;;;53.72;31.98;;;9.00;99.90;;;;;;4972168;28;20105;-76
2022/12/23 10:24:46;;;;;;;53.22;31.25;;;9.00;99.90;;;;;;4964443;28;20030;-75
2022/12/23 10:27:31;;;;;;;50.05;31.70;;;9.10;99.90;;;;;;4969485;28;20023;-75
2022/12/23 10:30:18;;;;;;;51.08;33.15;;;9.10;99.90;;;;;;4965830;28;20027;-75
2022/12/23 10:33:06;;;;;;;51.40;32.50;;;9.10;99.90;;;;;;4964286;28;20027;-75
2022/12/23 10:35:41;;;;;;;48.80;31.55;;;9.10;99.90;;;;;;4969301;28;20058;-75
2022/12/23 10:38:34;;;;;;;46.97;30.55;;;9.10;99.90;;;;;;4953737;29;20027;-75
2022/12/23 10:41:14;;;;;;;52.80;31.75;;;9.20;99.90;;;;;;4962589;28;20027;-75
2022/12/23 10:43:50;;;;;;;48.33;30.60;;;9.20;99.90;;;;;;4969122;28;20018;-76
2022/12/23 10:46:53;;;;;;;50.22;31.55;;;9.20;99.90;;;;;;4953092;28;20023;-76
2022/12/23 10:49:50;;;;;;;51.25;32.30;;;9.20;99.90;;;;;;4966667;28;20498;-75
2022/12/23 10:52:22;;;;;;;52.38;31.73;;;9.30;99.90;;;;;;4973074;28;20030;-75
2022/12/23 10:54:48;;;;;;;53.53;31.55;;;9.30;99.90;;;;;;4971128;28;20027;-75
2022/12/23 10:57:17;;;;;;;44.67;29.08;;;9.40;99.90;;;;;;4972243;28;20496;-75
2022/12/23 10:59:44;;;;;;;43.90;29.05;;;9.50;99.90;;;;;;4971046;28;20059;-75
2022/12/23 11:02:13;;;;;;;45.55;27.67;;;9.60;99.90;;;;;;4974195;28;20058;-76
2022/12/23 11:04:46;;;;;;;46.03;28.58;;;9.60;99.90;;;;;;4966415;28;20027;-76
2022/12/23 11:07:23;;;;;;;46.47;28.35;;;9.50;99.90;;;;;;4970899;28;20031;-76
2022/12/23 11:10:00;;;;;;;43.95;27.95;;;9.50;99.90;;;;;;4968883;28;20485;-75
2022/12/23 11:12:42;;;;;;;44.70;27.35;;;9.40;99.90;;;;;;4964672;28;20504;-75
2022/12/23 11:15:34;;;;;;;41.67;28.30;;;9.40;99.90;;;;;;4967005;28;20069;-75
2022/12/23 11:18:18;;;;;;;44.70;28.88;;;9.40;99.90;;;;;;4964069;28;20062;-75
2022/12/23 11:21:00;;;;;;;56.22;34.03;;;9.40;99.90;;;;;;4976628;28;20048;-75
2022/12/23 11:23:29;;;;;;;47.65;30.45;;;9.40;99.90;;;;;;4974250;28;20037;-76
2022/12/23 11:26:05;;;;;;;54.35;28.98;;;9.30;99.90;;;;;;4971501;28;20090;-75
2022/12/23 11:28:35;;;;;;;47.08;29.25;;;9.30;99.90;;;;;;4968643;28;20031;-75
2022/12/23 11:31:08;;;;;;;43.33;29.25;;;9.30;99.90;;;;;;4968042;28;20023;-76
2022/12/23 11:33:38;;;;;;;45.33;29.00;;;9.30;99.90;;;;;;4967478;28;20485;-75
2022/12/23 11:36:04;;;;;;;46.22;30.02;;;9.30;99.90;;;;;;4973050;28;20039;-75
2022/12/23 11:38:31;;;;;;;49.90;29.45;;;9.30;99.90;;;;;;4968715;28;20027;-75
2022/12/23 11:40:57;;;;;;;46.88;30.63;;;9.30;99.90;;;;;;4957286;29;20505;-75
2022/12/23 11:43:25;;;;;;;46.78;29.10;;;9.40;99.90;;;;;;4975002;28;20370;-75
2022/12/23 11:46:13;;;;;;;50.80;31.20;;;9.40;99.90;;;;;;4972899;28;20019;-75
2022/12/23 11:48:39;;;;;;;51.58;32.05;;;9.40;99.90;;;;;;4968970;28;20023;-75
2022/12/23 11:51:05;;;;;;;45.17;29.73;;;9.50;99.90;;;;;;4967678;28;20034;-79
2022/12/23 11:53:31;;;;;;;46.80;29.48;;;9.50;99.90;;;;;;4976692;28;20081;-79
2022/12/23 11:56:13;;;;;;;50.97;30.70;;;9.50;99.90;;;;;;4972351;28;20035;-79
2022/12/23 11:58:52;;;;;;;47.95;30.08;;;9.50;99.90;;;;;;4955162;29;20051;-79
2022/12/23 12:01:23;;;;;;;50.08;31.48;;;9.50;99.90;;;;;;4969163;28;20059;-79
2022/12/23 12:04:17;;;;;;;45.60;30.70;;;9.50;99.90;;;;;;4975612;28;20133;-79
2022/12/23 12:06:44;;;;;;;51.70;31.58;;;9.50;99.90;;;;;;4971530;28;20402;-78
2022/12/23 12:09:12;;;;;;;52.38;30.73;;;9.50;99.90;;;;;;4975950;28;20110;-79
2022/12/23 12:11:44;;;;;;;48.30;31.00;;;9.50;99.90;;;;;;4974071;28;20669;-79
2022/12/23 12:14:32;;;;;;;47.88;31.08;;;9.60;99.90;;;;;;4973716;28;20742;-79
2022/12/23 12:17:23;;;;;;;45.67;30.45;;;9.60;99.90;;;;;;4975542;28;20031;-79
2022/12/23 12:20:36;;;;;;;54.15;31.80;;;9.60;99.90;;;;;;4966270;28;20046;-79
2022/12/23 12:23:08;;;;;;;45.90;30.50;;;9.60;99.90;;;;;;4924922;28;20434;-78
2022/12/23 12:26:00;;;;;;;45.78;30.42;;;9.60;99.90;;;;;;4948895;28;20039;-78
2022/12/23 12:28:42;;;;;;;44.60;28.52;;;9.60;99.90;;;;;;4973882;28;20023;-78
2022/12/23 12:31:19;;;;;;;46.72;29.05;;;9.70;99.90;;;;;;4974051;28;20039;-78
2022/12/23 12:34:01;;;;;;;47.35;28.77;;;9.70;99.90;;;;;;4971986;28;20507;-78
2022/12/23 12:36:39;;;;;;;;;;;9.70;99.90;;;;;;4974974;28;20019;-78
2022/12/23 12:39:13;;;;;;;45.60;27.33;;;9.70;99.90;;;;;;4962505;28;20376;-78
2022/12/23 12:41:56;;;;;;;49.05;29.83;;;9.70;99.90;;;;;;4965827;28;20042;-78
2022/12/23 12:44:42;;;;;;;45.67;30.05;;;9.70;99.90;;;;;;4962996;28;20042;-78
2022/12/23 12:47:34;;;;;;;46.08;29.27;;;9.80;99.90;;;;;;4962944;28;20026;-78
2022/12/23 12:50:05;;;;;;;47.78;30.02;;;9.80;99.90;;;;;;4933427;28;20097;-78
2022/12/23 12:52:37;;;;;;;41.90;27.48;;;9.80;99.90;;;;;;4984909;28;20035;-78
2022/12/23 12:55:17;;;;;;;48.15;28.85;;;9.80;99.90;;;;;;4967550;28;21111;-78
2022/12/23 12:57:43;;;;;;;43.30;26.83;;;9.90;99.90;;;;;;4966180;28;20414;-78
2022/12/23 13:00:18;;;;;;;44.08;29.35;;;9.90;99.90;;;;;;4969210;28;20031;-78
2022/12/23 13:03:03;;;;;;;41.70;28.10;;;10.00;99.90;;;;;;4965273;28;20458;-78
2022/12/23 13:05:28;;;;;;;43.50;28.33;;;10.00;99.90;;;;;;4971967;28;20077;-78
2022/12/23 13:08:09;;;;;;;40.10;26.70;;;10.00;99.90;;;;;;4966862;28;20026;-78
2022/12/23 13:10:44;;;;;;;45.65;27.92;;;10.00;99.90;;;;;;4965278;28;20131;-78
2022/12/23 13:13:24;;;;;;;43.15;27.50;;;10.00;99.90;;;;;;4963905;28;20125;-79
2022/12/23 13:15:58;;;;;;;47.65;28.30;;;10.00;99.90;;;;;;4965621;28;20038;-78
2022/12/23 13:18:42;;;;;;;41.60;27.38;;;9.90;99.90;;;;;;4966242;28;20027;-78
2022/12/23 13:21:14;;;;;;;43.00;28.27;;;9.90;99.90;;;;;;4969465;28;20030;-79
2022/12/23 13:23:45;;;;;;;42.03;27.88;;;9.90;99.90;;;;;;4968149;28;20031;-78
2022/12/23 13:26:27;;;;;;;44.15;28.08;;;9.80;99.90;;;;;;4971609;28;20022;-78
2022/12/23 13:28:56;;;;;;;43.22;27.27;;;9.80;99.90;;;;;;4980597;28;20313;-78
2022/12/23 13:31:34;;;;;;;42.55;26.75;;;9.80;99.90;;;;;;4963838;28;20560;-78